Aviation Digital Data Service (ADDS)

Output produced by TAFs form (0454 UTC 30 March 2017)
found at http://www.aviationweather.gov/adds/tafs/
 
METAR text: ZYTL 300430Z VRB04MPS 3500 HZ NSC 13/04 Q1023 NOSIG
Conditions at: ZYTL (DALIAN/DAIREN/LU, CN) observed 0430 UTC 30 March 2017
Temperature: 13.0°C (55°F)
Dewpoint: 4.0°C (39°F) [RH = 54%]
Pressure (altimeter): 30.21 inches Hg (1023.0 mb)
Winds: variable direction winds at 9 MPH (8 knots; 4.2 m/s)
Visibility: 2.17 miles (3.49 km)
Ceiling: at least 12,000 feet AGL
Clouds: sky clear below 12,000 feet AGL
Weather: HZ  (haze)

Forecast for: ZYTL (DALIAN/DAIREN/LU, CN)
Text: TAF ZYTL 300307Z 3006/3106 02006G12MPS 3000 BR NSC TX12/3006Z TN05/3021Z
Forecast period: 0600 to 0800 UTC 30 March 2017
Forecast type: FROM: standard forecast or significant change
Winds: from the NNE (20 degrees) at 14 MPH (12 knots; 6.2 m/s)
gusting to 26 MPH (23 knots; 12.0 m/s)
Visibility: 1.86 miles (2.99 km)
Clouds: not forecast
Weather: BR  (mist)
Text: BECMG 3008/3009 33004MPS
Forecast period: 0800 UTC 30 March 2017 to 0600 UTC 31 March 2017
Forecast type: BECOMING: Conditions expected to become as follows by 0900 UTC 30 March 2017
Winds: from the NNW (330 degrees) at 9 MPH (8 knots; 4.2 m/s)
Visibility: 1.86 miles (2.99 km)
Weather: BR  (mist)